createdAt,value
2019-02-06T00:00:36.058Z,68.77
2019-02-06T00:03:07.524Z,68.77
2019-02-06T00:05:38.560Z,71.03
2019-02-06T00:08:09.906Z,73.43
2019-02-06T00:10:41.003Z,67.40
2019-02-06T00:13:11.960Z,67.17
2019-02-06T00:15:43.004Z,67.57
2019-02-06T00:18:14.386Z,73.60
2019-02-06T00:20:45.382Z,66.33
2019-02-06T00:23:16.478Z,69.43
2019-02-06T00:25:47.472Z,70.77
2019-02-06T00:28:18.503Z,71.43
2019-02-06T00:30:50.067Z,68.33
2019-02-06T00:33:21.166Z,69.77
2019-02-06T00:35:52.403Z,72.40
2019-02-06T00:38:23.487Z,69.43
2019-02-06T00:40:54.511Z,67.03
2019-02-06T00:43:25.914Z,67.60
2019-02-06T00:45:57.103Z,72.50
2019-02-06T00:48:28.197Z,65.73
2019-02-06T00:50:59.198Z,72.10
2019-02-06T00:53:30.248Z,70.80
2019-02-06T00:56:01.404Z,71.37
2019-02-06T00:58:32.443Z,64.67
2019-02-06T01:01:05.961Z,65.50
2019-02-06T01:03:36.937Z,64.30
2019-02-06T01:06:08.079Z,62.83
2019-02-06T01:08:39.250Z,64.17
2019-02-06T01:11:10.463Z,63.93
2019-02-06T01:13:41.341Z,66.13
2019-02-06T01:16:12.449Z,66.07
2019-02-06T01:18:43.429Z,68.03
2019-02-06T01:21:14.511Z,67.37
2019-02-06T01:23:45.980Z,64.40
2019-02-06T01:26:16.991Z,64.30
2019-02-06T01:28:48.131Z,57.70
2019-02-06T01:31:20.577Z,65.47
2019-02-06T01:33:51.535Z,60.83
2019-02-06T01:36:22.744Z,64.77
2019-02-06T01:38:53.657Z,60.33
2019-02-06T01:41:24.624Z,64.93
2019-02-06T01:43:55.699Z,61.73
2019-02-06T01:46:26.753Z,60.00
2019-02-06T01:48:57.935Z,65.30
2019-02-06T01:51:29.253Z,61.73
2019-02-06T01:54:00.186Z,62.57
2019-02-06T01:56:31.162Z,61.90
2019-02-06T01:59:02.227Z,70.47
2019-02-06T02:01:33.173Z,63.90
2019-02-06T02:04:04.693Z,66.20
2019-02-06T02:06:35.761Z,61.60
2019-02-06T02:09:09.872Z,65.40
2019-02-06T02:11:40.911Z,57.43
2019-02-06T02:14:12.025Z,61.37
2019-02-06T02:16:43.064Z,55.83
2019-02-06T02:19:14.565Z,64.23
2019-02-06T02:21:45.845Z,66.40
2019-02-06T02:24:17.081Z,63.83
2019-02-06T02:26:48.177Z,74.83
2019-02-06T02:29:19.211Z,70.37
2019-02-06T02:31:50.466Z,65.63
2019-02-06T02:34:21.533Z,67.73
2019-02-06T02:36:52.452Z,64.23
2019-02-06T02:39:23.346Z,65.07
2019-02-06T02:41:54.393Z,62.43
2019-02-06T02:44:25.464Z,61.83
2019-02-06T02:46:56.719Z,65.23
2019-02-06T02:49:27.738Z,63.33
2019-02-06T02:51:58.799Z,61.90
2019-02-06T02:54:29.863Z,63.60
2019-02-06T02:57:01.178Z,60.90
2019-02-06T02:59:32.260Z,58.43
2019-02-06T03:02:04.942Z,57.33
2019-02-06T03:04:35.980Z,59.30
2019-02-06T03:07:07.241Z,51.63
2019-02-06T03:09:38.753Z,53.40
2019-02-06T03:12:09.721Z,53.37
2019-02-06T03:14:40.758Z,49.03
2019-02-06T03:17:11.768Z,53.47
2019-02-06T03:19:42.862Z,55.43
2019-02-06T03:22:13.840Z,52.37
2019-02-06T03:24:44.768Z,44.93
2019-02-06T03:27:15.735Z,45.77
2019-02-06T03:29:46.781Z,42.90
2019-02-06T03:32:17.911Z,45.43
2019-02-06T03:34:48.901Z,46.87
2019-02-06T03:37:19.863Z,49.97
2019-02-06T03:39:50.923Z,47.70
2019-02-06T03:42:21.975Z,54.67
2019-02-06T03:44:53.230Z,51.80
2019-02-06T03:47:24.260Z,51.60
2019-02-06T03:49:55.622Z,51.17
2019-02-06T03:52:26.623Z,55.43
2019-02-06T03:54:57.738Z,45.03
2019-02-06T03:57:28.686Z,42.20
2019-02-06T03:59:59.871Z,44.23
2019-02-06T04:02:30.938Z,42.67
2019-02-06T04:05:02.046Z,43.33
2019-02-06T04:07:33.047Z,39.00
2019-02-06T04:10:06.371Z,38.53
2019-02-06T04:12:37.550Z,37.80
2019-02-06T04:15:09.782Z,40.03
2019-02-06T04:17:40.861Z,41.40
2019-02-06T04:20:18.080Z,42.53
2019-02-06T04:22:49.174Z,38.27
2019-02-06T04:25:20.215Z,38.93
2019-02-06T04:27:51.615Z,37.50
2019-02-06T04:30:22.603Z,37.60
2019-02-06T04:32:53.545Z,41.03
2019-02-06T04:35:24.611Z,39.30
2019-02-06T04:37:55.741Z,37.80
2019-02-06T04:40:26.854Z,35.93
2019-02-06T04:42:57.916Z,43.30
2019-02-06T04:45:28.995Z,41.07
2019-02-06T04:47:59.988Z,45.03
2019-02-06T04:50:31.248Z,45.27
2019-02-06T04:53:02.285Z,43.53
2019-02-06T04:55:33.543Z,42.83
2019-02-06T04:58:04.999Z,44.97
2019-02-06T05:00:36.099Z,42.33
2019-02-06T05:03:07.099Z,44.90
2019-02-06T05:05:38.258Z,51.27
2019-02-06T05:08:11.307Z,50.60
2019-02-06T05:10:42.451Z,42.37
2019-02-06T05:13:13.505Z,40.30
2019-02-06T05:15:44.579Z,37.90
2019-02-06T05:18:15.741Z,39.97
2019-02-06T05:20:46.864Z,39.60
2019-02-06T05:23:17.805Z,41.43
2019-02-06T05:25:49.095Z,40.00
2019-02-06T05:28:20.063Z,41.20
2019-02-06T05:30:51.003Z,40.23
2019-02-06T05:33:21.977Z,44.63
2019-02-06T05:35:53.253Z,45.17
2019-02-06T05:38:24.221Z,40.77
2019-02-06T05:40:55.399Z,38.10
2019-02-06T05:43:26.449Z,42.37
2019-02-06T05:45:57.421Z,43.80
2019-02-06T05:48:28.477Z,40.73
2019-02-06T05:50:59.579Z,43.27
2019-02-06T05:53:30.591Z,43.97
2019-02-06T05:56:01.611Z,42.63
2019-02-06T05:58:32.896Z,46.73
2019-02-06T06:01:04.310Z,51.17
2019-02-06T06:03:35.546Z,40.80
2019-02-06T06:06:06.795Z,43.03
2019-02-06T06:08:37.899Z,40.83
2019-02-06T06:11:08.875Z,41.47
2019-02-06T06:13:39.911Z,43.33
2019-02-06T06:16:14.037Z,42.40
2019-02-06T06:18:45.066Z,45.77
2019-02-06T06:21:16.085Z,44.10
2019-02-06T06:23:47.115Z,47.50
2019-02-06T06:26:18.029Z,44.00
2019-02-06T06:28:49.205Z,50.83
2019-02-06T06:31:20.706Z,45.87
2019-02-06T06:33:51.612Z,41.13
2019-02-06T06:36:22.669Z,41.60
2019-02-06T06:38:53.670Z,41.23
2019-02-06T06:41:24.595Z,38.97
2019-02-06T06:43:56.003Z,48.70
2019-02-06T06:46:27.074Z,43.67
2019-02-06T06:48:58.349Z,42.63
2019-02-06T06:51:29.447Z,44.83
2019-02-06T06:54:00.436Z,39.60
2019-02-06T06:56:31.402Z,42.60
2019-02-06T06:59:02.491Z,41.97
2019-02-06T07:01:33.386Z,42.87
2019-02-06T07:04:04.450Z,42.17
2019-02-06T07:06:35.516Z,43.50
2019-02-06T07:09:08.654Z,39.63
2019-02-06T07:11:39.703Z,41.23
2019-02-06T07:14:10.744Z,39.73
2019-02-06T07:16:42.126Z,38.83
2019-02-06T07:19:13.068Z,43.73
2019-02-06T07:21:44.178Z,45.33
2019-02-06T07:24:15.449Z,43.53
2019-02-06T07:26:49.108Z,42.27
2019-02-06T07:29:20.071Z,37.53
2019-02-06T07:31:51.073Z,34.13
2019-02-06T07:34:22.146Z,38.43
2019-02-06T07:36:53.350Z,43.83
2019-02-06T07:39:24.536Z,40.73
2019-02-06T07:41:55.417Z,37.60
2019-02-06T07:44:26.328Z,39.27
2019-02-06T07:46:57.250Z,40.80
2019-02-06T07:49:28.536Z,38.07
2019-02-06T07:51:59.562Z,39.00
2019-02-06T07:54:30.537Z,36.37
2019-02-06T07:57:01.568Z,37.87
2019-02-06T07:59:32.683Z,39.53
2019-02-06T08:02:03.745Z,38.97
2019-02-06T08:04:34.725Z,40.70
2019-02-06T08:07:05.855Z,37.70
2019-02-06T08:09:37.106Z,39.47
2019-02-06T08:12:08.058Z,42.07
2019-02-06T08:14:39.134Z,37.50
2019-02-06T08:17:10.421Z,38.77
2019-02-06T08:19:41.513Z,41.40
2019-02-06T08:22:12.582Z,41.33
2019-02-06T08:24:43.621Z,34.90
2019-02-06T08:27:14.588Z,41.10
2019-02-06T08:29:45.707Z,38.40
2019-02-06T08:32:19.473Z,39.20
2019-02-06T08:34:50.745Z,40.07
2019-02-06T08:37:22.240Z,40.13
2019-02-06T08:39:53.280Z,35.80
2019-02-06T08:42:24.357Z,43.50
2019-02-06T08:44:55.387Z,38.43
2019-02-06T08:47:26.463Z,39.67
2019-02-06T08:49:57.421Z,41.47
2019-02-06T08:52:28.544Z,38.60
2019-02-06T08:54:59.545Z,38.70
2019-02-06T08:57:30.649Z,41.37
2019-02-06T09:00:01.532Z,38.67
2019-02-06T09:02:32.912Z,42.23
2019-02-06T09:05:07.643Z,38.60
2019-02-06T09:07:38.339Z,38.87
2019-02-06T09:10:13.424Z,44.10
2019-02-06T09:12:44.577Z,39.70
2019-02-06T09:15:15.959Z,40.97
2019-02-06T09:17:47.145Z,40.20
2019-02-06T09:20:20.508Z,40.63
2019-02-06T09:22:51.814Z,39.60
2019-02-06T09:25:26.946Z,40.00
2019-02-06T09:27:57.997Z,38.10
2019-02-06T09:30:34.201Z,39.97
2019-02-06T09:33:05.757Z,45.37
2019-02-06T09:35:36.809Z,32.33
2019-02-06T09:38:07.912Z,32.37
2019-02-06T09:40:38.883Z,36.97
2019-02-06T09:43:09.861Z,36.10
2019-02-06T09:45:40.826Z,35.13
2019-02-06T09:48:11.862Z,35.43
2019-02-06T09:50:42.895Z,30.77
2019-02-06T09:53:13.851Z,29.83
2019-02-06T09:55:44.874Z,31.27
2019-02-06T09:58:15.902Z,34.83
2019-02-06T10:00:48.851Z,37.87
2019-02-06T10:03:19.731Z,36.40
2019-02-06T10:05:50.789Z,43.47
2019-02-06T10:08:21.781Z,34.57
2019-02-06T10:10:52.885Z,35.40
2019-02-06T10:13:23.712Z,37.03
2019-02-06T10:15:54.686Z,35.63
2019-02-06T10:18:25.769Z,41.90
2019-02-06T10:20:56.837Z,38.10
2019-02-06T10:23:27.930Z,36.27
2019-02-06T10:25:58.888Z,40.80
2019-02-06T10:28:30.351Z,39.33
2019-02-06T10:31:01.537Z,37.47
2019-02-06T10:33:32.503Z,38.77
2019-02-06T10:36:03.473Z,37.23
2019-02-06T10:38:34.453Z,40.00
2019-02-06T10:41:05.784Z,38.43
2019-02-06T10:43:36.981Z,37.97
2019-02-06T10:46:08.019Z,35.73
2019-02-06T10:48:38.963Z,33.93
2019-02-06T10:51:10.214Z,33.23
2019-02-06T10:53:41.737Z,33.80
2019-02-06T10:56:12.819Z,31.60
2019-02-06T10:58:43.793Z,32.67
2019-02-06T11:01:14.698Z,33.10
2019-02-06T11:03:45.629Z,30.97
2019-02-06T11:06:16.689Z,28.83
2019-02-06T11:08:47.615Z,30.60
2019-02-06T11:11:18.651Z,35.30
2019-02-06T11:13:49.988Z,30.17
2019-02-06T11:16:21.489Z,33.00
2019-02-06T11:18:52.436Z,36.47
2019-02-06T11:21:23.644Z,30.47
2019-02-06T11:23:54.593Z,29.27
2019-02-06T11:26:26.007Z,31.27
2019-02-06T11:28:56.908Z,29.70
2019-02-06T11:31:27.878Z,26.40
2019-02-06T11:33:59.319Z,26.77
2019-02-06T11:36:30.453Z,26.93
2019-02-06T11:39:01.403Z,26.93
2019-02-06T11:41:32.579Z,27.97
2019-02-06T11:44:04.223Z,27.90
2019-02-06T11:46:35.178Z,27.30
2019-02-06T11:49:07.021Z,27.50
2019-02-06T11:51:40.856Z,23.70
2019-02-06T11:54:13.132Z,24.47
2019-02-06T11:56:44.283Z,23.90
2019-02-06T11:59:15.531Z,28.37
2019-02-06T12:01:46.654Z,26.73
2019-02-06T12:04:17.913Z,31.00
2019-02-06T12:06:49.012Z,25.70
2019-02-06T12:09:20.058Z,28.10
2019-02-06T12:11:51.015Z,27.00
2019-02-06T12:14:22.008Z,26.27
2019-02-06T12:16:53.180Z,37.23
2019-02-06T12:19:24.227Z,30.00
2019-02-06T12:21:55.287Z,30.53
2019-02-06T12:24:32.002Z,28.63
2019-02-06T12:27:03.057Z,27.37
2019-02-06T12:29:34.016Z,28.40
2019-02-06T12:32:05.560Z,26.07
2019-02-06T12:34:36.518Z,27.60
2019-02-06T12:37:07.414Z,30.60
2019-02-06T12:39:38.848Z,26.03
2019-02-06T12:42:10.386Z,26.00
2019-02-06T12:44:42.798Z,24.07
2019-02-06T12:47:14.380Z,28.00
2019-02-06T12:49:45.552Z,25.83
2019-02-06T12:52:16.635Z,27.07
2019-02-06T12:54:48.248Z,27.23
2019-02-06T12:57:19.285Z,25.53
2019-02-06T12:59:50.243Z,25.57
2019-02-06T13:02:21.431Z,28.10
2019-02-06T13:04:54.070Z,25.60
2019-02-06T13:07:25.120Z,24.90
2019-02-06T13:09:56.165Z,23.10
2019-02-06T13:12:27.432Z,27.70
2019-02-06T13:14:58.854Z,26.73
2019-02-06T13:17:29.868Z,27.83
2019-02-06T13:20:00.974Z,24.50
2019-02-06T13:22:34.052Z,29.27
2019-02-06T13:25:07.856Z,26.17
2019-02-06T13:27:38.800Z,26.67
2019-02-06T13:30:21.469Z,24.57
2019-02-06T13:32:52.842Z,26.70
2019-02-06T13:35:23.897Z,28.33
2019-02-06T13:37:54.993Z,29.93
2019-02-06T13:40:29.901Z,28.17
2019-02-06T13:43:01.041Z,27.63
2019-02-06T13:45:43.581Z,26.73
2019-02-06T13:48:14.622Z,28.73
2019-02-06T13:50:47.413Z,31.97
2019-02-06T13:53:18.441Z,26.37
2019-02-06T13:55:49.855Z,27.20
2019-02-06T13:58:21.001Z,28.20
2019-02-06T14:00:52.641Z,28.33
2019-02-06T14:03:23.756Z,31.20
2019-02-06T14:05:54.912Z,36.90
2019-02-06T14:08:28.611Z,27.93
2019-02-06T14:11:00.841Z,28.67
2019-02-06T14:13:32.172Z,25.70
2019-02-06T14:16:03.623Z,29.03
2019-02-06T14:18:34.684Z,28.30
2019-02-06T14:21:05.861Z,28.00
2019-02-06T14:23:39.817Z,29.40
2019-02-06T14:26:16.338Z,28.03
2019-02-06T14:29:11.007Z,27.43
2019-02-06T14:31:56.221Z,25.37
2019-02-06T14:34:41.993Z,30.87
2019-02-06T14:37:27.674Z,29.20
2019-02-06T14:40:01.451Z,30.43
2019-02-06T14:42:41.022Z,29.77
2019-02-06T14:45:27.345Z,27.43
2019-02-06T14:48:07.103Z,29.37
2019-02-06T14:51:00.383Z,27.17
2019-02-06T14:53:49.397Z,29.67
2019-02-06T14:56:26.367Z,26.83
2019-02-06T14:59:20.518Z,31.17
2019-02-06T15:02:12.651Z,27.57
2019-02-06T15:04:55.367Z,26.73
2019-02-06T15:07:35.189Z,27.70
2019-02-06T15:10:29.054Z,30.33
2019-02-06T15:13:21.215Z,27.80
2019-02-06T15:16:04.082Z,25.77
2019-02-06T15:18:38.093Z,30.43
2019-02-06T15:21:39.522Z,31.43
2019-02-06T15:24:38.071Z,32.23
2019-02-06T15:27:33.026Z,35.10
2019-02-06T15:30:20.033Z,32.70
2019-02-06T15:33:08.545Z,38.43
2019-02-06T15:35:45.663Z,33.40
2019-02-06T15:38:46.669Z,31.13
2019-02-06T15:41:31.311Z,33.90
2019-02-06T15:44:05.431Z,34.30
2019-02-06T15:46:42.430Z,34.80
2019-02-06T15:49:33.221Z,34.93
2019-02-06T15:52:18.987Z,33.80
2019-02-06T15:54:58.769Z,33.73
2019-02-06T15:57:41.504Z,32.97
2019-02-06T16:00:27.572Z,34.37
2019-02-06T16:03:07.618Z,34.67
2019-02-06T16:05:59.424Z,36.90
2019-02-06T16:08:42.321Z,40.10
2019-02-06T16:11:27.864Z,38.47
2019-02-06T16:14:07.339Z,38.60
2019-02-06T16:16:44.271Z,35.50
2019-02-06T16:19:47.670Z,38.73
2019-02-06T16:22:33.743Z,47.87
2019-02-06T16:25:07.714Z,36.90
2019-02-06T16:27:44.245Z,40.30
2019-02-06T16:30:24.152Z,40.00
2019-02-06T16:33:19.550Z,40.70
2019-02-06T16:35:56.323Z,44.43
2019-02-06T16:38:33.157Z,43.37
2019-02-06T16:41:25.190Z,44.00
2019-02-06T16:44:02.148Z,44.33
2019-02-06T16:46:36.114Z,44.57
2019-02-06T16:49:16.370Z,42.27
2019-02-06T16:51:59.373Z,43.50
2019-02-06T16:54:45.159Z,42.83
2019-02-06T16:57:33.526Z,43.73
2019-02-06T17:00:19.080Z,45.70
2019-02-06T17:02:53.432Z,46.63
2019-02-06T17:05:36.765Z,44.73
2019-02-06T17:08:10.747Z,47.17
2019-02-06T17:11:06.750Z,51.97
2019-02-06T17:13:57.040Z,48.90
2019-02-06T17:16:49.484Z,50.90
2019-02-06T17:19:29.226Z,50.80
2019-02-06T17:22:18.410Z,49.50
2019-02-06T17:25:06.061Z,54.57
2019-02-06T17:27:49.208Z,53.40
2019-02-06T17:30:42.852Z,47.63
2019-02-06T17:33:16.876Z,52.77
2019-02-06T17:35:56.980Z,55.30
2019-02-06T17:38:56.588Z,53.80
2019-02-06T17:41:36.173Z,53.03
2019-02-06T17:44:17.404Z,51.20
2019-02-06T17:46:57.371Z,52.73
2019-02-06T17:49:40.395Z,52.10
2019-02-06T17:52:14.395Z,55.43
2019-02-06T17:55:20.120Z,47.20
2019-02-06T17:57:52.590Z,49.37
2019-02-06T18:00:48.058Z,52.97
2019-02-06T18:03:20.164Z,46.37
2019-02-06T18:05:53.527Z,51.80
2019-02-06T18:08:24.562Z,45.77
2019-02-06T18:10:58.680Z,47.83
2019-02-06T18:13:33.076Z,52.03
2019-02-06T18:16:04.305Z,48.20
2019-02-06T18:18:35.423Z,46.93
2019-02-06T18:21:06.626Z,44.67
2019-02-06T18:23:37.815Z,48.73
2019-02-06T18:26:09.215Z,46.70
2019-02-06T18:28:40.485Z,49.07
2019-02-06T18:31:11.862Z,50.27
2019-02-06T18:33:43.067Z,53.57
2019-02-06T18:36:14.116Z,52.73
2019-02-06T18:38:47.091Z,52.80
2019-02-06T18:41:20.997Z,47.40
2019-02-06T18:44:04.544Z,50.83
2019-02-06T18:46:35.795Z,50.47
2019-02-06T18:49:07.230Z,48.57
2019-02-06T18:51:38.767Z,49.03
2019-02-06T18:54:10.302Z,47.60
2019-02-06T18:56:41.447Z,44.93
2019-02-06T18:59:12.738Z,44.30
2019-02-06T19:01:45.471Z,47.97
2019-02-06T19:04:16.491Z,50.23
2019-02-06T19:06:47.524Z,51.20
2019-02-06T19:09:18.751Z,46.70
2019-02-06T19:11:49.991Z,45.80
2019-02-06T19:14:23.061Z,51.57
2019-02-06T19:16:54.179Z,50.53
2019-02-06T19:19:25.834Z,53.27
2019-02-06T19:21:56.790Z,54.77
2019-02-06T19:24:30.420Z,45.00
2019-02-06T19:27:02.796Z,51.70
2019-02-06T19:29:34.020Z,48.20
2019-02-06T19:32:05.383Z,52.97
2019-02-06T19:34:36.436Z,56.57
2019-02-06T19:37:07.546Z,47.27
2019-02-06T19:39:38.771Z,54.00
2019-02-06T19:42:10.379Z,51.17
2019-02-06T19:44:59.302Z,50.93
2019-02-06T19:47:32.143Z,46.83
2019-02-06T19:50:04.323Z,51.53
2019-02-06T19:52:40.260Z,50.37
2019-02-06T19:55:14.019Z,47.67
2019-02-06T19:57:45.200Z,49.87
2019-02-06T20:00:22.140Z,48.17
2019-02-06T20:02:53.214Z,47.93
2019-02-06T20:05:24.624Z,41.77
2019-02-06T20:07:55.788Z,49.90
2019-02-06T20:10:35.445Z,50.50
2019-02-06T20:13:12.335Z,49.90
2019-02-06T20:15:39.877Z,46.77
2019-02-06T20:18:11.163Z,47.90
2019-02-06T20:20:42.112Z,53.30
2019-02-06T20:23:13.253Z,46.73
2019-02-06T20:25:45.471Z,50.97
2019-02-06T20:28:16.569Z,48.80
2019-02-06T20:30:47.726Z,45.37
2019-02-06T20:33:19.394Z,43.13
2019-02-06T20:35:50.558Z,47.93
2019-02-06T20:38:21.702Z,47.40
2019-02-06T20:40:52.931Z,47.87
2019-02-06T20:43:23.951Z,49.97
2019-02-06T20:45:54.939Z,47.67
2019-02-06T20:48:26.162Z,45.67
2019-02-06T20:50:57.304Z,41.70
2019-02-06T20:53:28.393Z,42.77
2019-02-06T20:55:59.506Z,43.90
2019-02-06T20:58:30.624Z,45.30
2019-02-06T21:01:01.779Z,43.43
2019-02-06T21:03:32.808Z,44.30
2019-02-06T21:06:03.990Z,44.03
2019-02-06T21:08:35.244Z,43.13
2019-02-06T21:11:06.472Z,42.10
2019-02-06T21:13:37.526Z,42.27
2019-02-06T21:16:09.223Z,44.30
2019-02-06T21:18:40.149Z,42.17
2019-02-06T21:21:11.206Z,44.10
2019-02-06T21:23:42.262Z,44.50
2019-02-06T21:26:13.531Z,41.87
2019-02-06T21:28:44.564Z,44.77
2019-02-06T21:31:15.734Z,42.90
2019-02-06T21:33:46.788Z,42.00
2019-02-06T21:36:17.894Z,43.27
2019-02-06T21:38:49.031Z,49.33
2019-02-06T21:41:20.097Z,47.10
2019-02-06T21:43:51.131Z,42.60
2019-02-06T21:46:22.247Z,53.33
2019-02-06T21:48:53.366Z,46.97
2019-02-06T21:51:24.402Z,47.97
2019-02-06T21:53:55.841Z,45.93
2019-02-06T21:56:27.189Z,43.33
2019-02-06T21:58:58.452Z,43.40
2019-02-06T22:01:30.279Z,43.57
2019-02-06T22:04:01.541Z,42.90
2019-02-06T22:06:32.527Z,48.53
2019-02-06T22:09:04.598Z,46.00
2019-02-06T22:11:35.751Z,46.33
2019-02-06T22:14:06.952Z,42.83
2019-02-06T22:16:38.086Z,44.77
2019-02-06T22:19:09.560Z,42.83
2019-02-06T22:21:40.849Z,42.30
2019-02-06T22:24:11.887Z,46.53
2019-02-06T22:26:42.943Z,50.47
2019-02-06T22:29:14.014Z,41.07
2019-02-06T22:31:45.177Z,45.50
2019-02-06T22:34:16.440Z,41.17
2019-02-06T22:36:47.540Z,44.53
2019-02-06T22:39:18.621Z,42.77
2019-02-06T22:41:49.764Z,42.93
2019-02-06T22:44:20.838Z,43.83
2019-02-06T22:46:51.847Z,43.57
2019-02-06T22:49:22.811Z,41.07
2019-02-06T22:51:53.882Z,44.83
2019-02-06T22:54:25.026Z,42.87
2019-02-06T22:56:56.689Z,41.13
2019-02-06T22:59:27.670Z,44.73
2019-02-06T23:01:58.767Z,43.53
2019-02-06T23:04:30.167Z,40.33
2019-02-06T23:07:01.283Z,46.23
2019-02-06T23:09:32.714Z,47.63
2019-02-06T23:12:04.097Z,41.77
2019-02-06T23:14:35.165Z,42.87
2019-02-06T23:17:06.322Z,48.07
2019-02-06T23:19:37.410Z,43.23
2019-02-06T23:22:08.512Z,43.77
2019-02-06T23:24:39.651Z,42.63
2019-02-06T23:27:10.719Z,55.00
2019-02-06T23:29:41.769Z,40.17
2019-02-06T23:32:12.949Z,43.37
2019-02-06T23:34:43.903Z,44.00
2019-02-06T23:37:14.949Z,41.07
2019-02-06T23:39:45.889Z,41.03
2019-02-06T23:42:16.975Z,45.33
2019-02-06T23:44:48.040Z,46.23
2019-02-06T23:47:19.109Z,44.10
2019-02-06T23:49:50.232Z,47.70
2019-02-06T23:52:21.491Z,45.83
2019-02-06T23:54:52.480Z,44.83
2019-02-06T23:57:23.618Z,45.20
2019-02-06T23:59:54.657Z,45.57
